createdAt,value
2019-03-18T00:00:30.041Z,5.17
2019-03-18T00:02:56.705Z,5.72
2019-03-18T00:05:23.268Z,4.65
2019-03-18T00:07:49.834Z,5.58
2019-03-18T00:10:16.407Z,5.42
2019-03-18T00:12:42.996Z,4.75
2019-03-18T00:15:09.561Z,6.12
2019-03-18T00:17:36.143Z,6.60
2019-03-18T00:20:02.708Z,5.33
2019-03-18T00:22:29.306Z,6.12
2019-03-18T00:24:55.875Z,6.20
2019-03-18T00:27:22.456Z,7.15
2019-03-18T00:29:49.022Z,5.35
2019-03-18T00:32:15.616Z,5.70
2019-03-18T00:34:42.222Z,5.42
2019-03-18T00:37:08.826Z,6.45
2019-03-18T00:39:35.391Z,5.08
2019-03-18T00:42:02.022Z,5.53
2019-03-18T00:44:28.589Z,5.40
2019-03-18T00:46:55.183Z,6.50
2019-03-18T00:49:21.754Z,6.28
2019-03-18T00:51:48.342Z,5.87
2019-03-18T00:54:14.912Z,4.67
2019-03-18T00:56:41.607Z,5.50
2019-03-18T00:59:08.329Z,8.05
2019-03-18T01:01:34.945Z,8.35
2019-03-18T01:04:01.522Z,7.55
2019-03-18T01:06:28.135Z,8.35
2019-03-18T01:08:54.713Z,7.22
2019-03-18T01:11:21.331Z,6.28
2019-03-18T01:13:47.905Z,5.55
2019-03-18T01:16:14.495Z,5.55
2019-03-18T01:18:41.077Z,5.35
2019-03-18T01:21:07.681Z,5.10
2019-03-18T01:23:34.265Z,4.10
2019-03-18T01:26:00.838Z,4.10
2019-03-18T01:28:27.400Z,3.92
2019-03-18T01:30:53.981Z,3.17
2019-03-18T01:33:20.545Z,3.27
2019-03-18T01:35:47.123Z,2.77
2019-03-18T01:38:13.698Z,2.83
2019-03-18T01:40:40.260Z,2.65
2019-03-18T01:43:06.846Z,2.33
2019-03-18T01:45:40.521Z,2.05
2019-03-18T01:48:01.715Z,2.30
2019-03-18T01:50:28.296Z,2.20
2019-03-18T01:52:54.877Z,1.60
2019-03-18T01:55:21.450Z,1.57
2019-03-18T01:57:48.020Z,3.25
2019-03-18T02:00:14.607Z,9.90
2019-03-18T02:02:41.317Z,10.03
2019-03-18T02:05:07.898Z,8.55
2019-03-18T02:07:34.636Z,6.65
2019-03-18T02:10:01.213Z,7.25
2019-03-18T02:12:27.824Z,5.42
2019-03-18T02:14:54.395Z,5.85
2019-03-18T02:17:21.022Z,5.97
2019-03-18T02:19:47.599Z,7.67
2019-03-18T02:22:14.214Z,4.58
2019-03-18T02:24:40.790Z,3.92
2019-03-18T02:27:07.409Z,5.75
2019-03-18T02:29:33.977Z,6.37
2019-03-18T02:32:00.597Z,6.72
2019-03-18T02:34:27.167Z,4.10
2019-03-18T02:36:53.762Z,6.33
2019-03-18T02:39:20.337Z,4.72
2019-03-18T02:41:46.793Z,4.40
2019-03-18T02:44:13.398Z,3.08
2019-03-18T02:46:40.033Z,2.90
2019-03-18T02:49:06.689Z,2.33
2019-03-18T02:51:33.293Z,2.08
2019-03-18T02:53:59.861Z,1.27
2019-03-18T02:56:26.438Z,0.90
2019-03-18T02:58:53.013Z,0.80
2019-03-18T03:01:19.579Z,1.05
2019-03-18T03:03:46.145Z,0.75
2019-03-18T03:06:12.789Z,1.10
2019-03-18T03:08:39.423Z,1.10
2019-03-18T03:11:06.018Z,1.30
2019-03-18T03:13:32.581Z,2.62
2019-03-18T03:15:59.147Z,2.80
2019-03-18T03:18:25.729Z,2.77
2019-03-18T03:20:52.302Z,4.62
2019-03-18T03:23:18.876Z,3.10
2019-03-18T03:25:45.631Z,2.42
2019-03-18T03:28:12.207Z,4.17
2019-03-18T03:30:38.770Z,4.35
2019-03-18T03:33:05.367Z,3.20
2019-03-18T03:35:31.990Z,3.33
2019-03-18T03:37:58.565Z,2.75
2019-03-18T03:40:25.138Z,1.70
2019-03-18T03:42:51.895Z,2.90
2019-03-18T03:45:18.459Z,1.90
2019-03-18T03:47:45.032Z,3.37
2019-03-18T03:50:11.605Z,4.30
2019-03-18T03:52:38.270Z,3.10
2019-03-18T03:55:04.842Z,4.62
2019-03-18T03:57:31.463Z,5.03
2019-03-18T03:59:58.038Z,6.58
2019-03-18T04:02:24.635Z,5.67
2019-03-18T04:04:51.204Z,5.97
2019-03-18T04:07:17.796Z,5.97
2019-03-18T04:09:44.371Z,4.87
2019-03-18T04:12:11.066Z,5.60
2019-03-18T04:14:37.642Z,6.83
2019-03-18T04:17:04.240Z,7.72
2019-03-18T04:19:30.811Z,6.80
2019-03-18T04:21:57.396Z,7.42
2019-03-18T04:24:23.982Z,7.17
2019-03-18T04:26:50.620Z,6.03
2019-03-18T04:29:17.193Z,6.90
2019-03-18T04:31:43.772Z,5.47
2019-03-18T04:34:10.353Z,6.95
2019-03-18T04:36:37.031Z,6.42
2019-03-18T04:39:03.610Z,6.87
2019-03-18T04:41:30.179Z,6.55
2019-03-18T04:43:56.750Z,5.62
2019-03-18T04:46:23.334Z,5.05
2019-03-18T04:48:49.897Z,5.37
2019-03-18T04:51:16.471Z,6.05
2019-03-18T04:53:43.050Z,5.78
2019-03-18T04:56:09.620Z,5.60
2019-03-18T04:58:36.196Z,8.45
2019-03-18T05:01:02.771Z,7.20
2019-03-18T05:03:29.363Z,8.70
2019-03-18T05:05:55.936Z,8.08
2019-03-18T05:08:22.533Z,9.23
2019-03-18T05:10:49.095Z,7.17
2019-03-18T05:13:15.699Z,5.92
2019-03-18T05:15:42.270Z,5.20
2019-03-18T05:18:08.889Z,7.37
2019-03-18T05:20:35.484Z,6.95
2019-03-18T05:23:02.142Z,7.00
2019-03-18T05:25:28.767Z,7.47
2019-03-18T05:27:55.399Z,5.90
2019-03-18T05:30:22.064Z,5.70
2019-03-18T05:32:48.665Z,4.92
2019-03-18T05:35:15.248Z,3.77
2019-03-18T05:37:41.852Z,3.05
2019-03-18T05:40:08.423Z,1.67
2019-03-18T05:42:34.988Z,1.92
2019-03-18T05:45:01.556Z,2.02
2019-03-18T05:47:38.562Z,2.92
2019-03-18T05:49:56.426Z,3.55
2019-03-18T05:52:22.995Z,2.95
2019-03-18T05:54:49.568Z,2.75
2019-03-18T05:57:16.230Z,3.12
2019-03-18T05:59:42.807Z,2.25
2019-03-18T06:02:09.375Z,3.85
2019-03-18T06:04:35.942Z,2.42
2019-03-18T06:07:02.519Z,4.05
2019-03-18T06:09:29.108Z,2.70
2019-03-18T06:11:55.660Z,2.67
2019-03-18T06:14:22.334Z,2.27
2019-03-18T06:16:48.913Z,2.65
2019-03-18T06:19:15.480Z,3.12
2019-03-18T06:21:42.128Z,3.47
2019-03-18T06:24:08.709Z,4.03
2019-03-18T06:26:35.286Z,3.70
2019-03-18T06:29:01.869Z,4.40
2019-03-18T06:31:28.448Z,4.62
2019-03-18T06:33:55.020Z,3.87
2019-03-18T06:36:21.591Z,3.85
2019-03-18T06:38:48.210Z,3.37
2019-03-18T06:41:14.772Z,3.65
2019-03-18T06:43:41.383Z,4.05
2019-03-18T06:46:07.950Z,4.12
2019-03-18T06:48:34.567Z,3.72
2019-03-18T06:51:01.148Z,4.10
2019-03-18T06:53:27.752Z,5.17
2019-03-18T06:55:54.322Z,4.47
2019-03-18T06:58:20.925Z,5.00
2019-03-18T07:00:47.490Z,6.42
2019-03-18T07:03:14.101Z,4.97
2019-03-18T07:05:40.681Z,4.62
2019-03-18T07:08:07.255Z,4.95
2019-03-18T07:10:33.822Z,4.12
2019-03-18T07:13:00.516Z,4.50
2019-03-18T07:15:27.090Z,4.95
2019-03-18T07:17:53.664Z,4.83
2019-03-18T07:20:20.273Z,4.87
2019-03-18T07:22:46.888Z,4.60
2019-03-18T07:25:13.477Z,7.12
2019-03-18T07:27:40.056Z,4.03
2019-03-18T07:30:06.661Z,4.45
2019-03-18T07:32:33.233Z,5.33
2019-03-18T07:34:59.886Z,5.58
2019-03-18T07:37:26.487Z,6.50
2019-03-18T07:39:53.075Z,8.38
2019-03-18T07:42:19.656Z,7.90
2019-03-18T07:44:46.263Z,5.97
2019-03-18T07:47:12.841Z,6.28
2019-03-18T07:49:39.466Z,7.90
2019-03-18T07:52:06.048Z,4.65
2019-03-18T07:54:33.310Z,5.35
2019-03-18T07:57:00.087Z,6.83
2019-03-18T07:59:26.695Z,3.87
2019-03-18T08:01:53.270Z,3.70
2019-03-18T08:04:19.873Z,6.00
2019-03-18T08:06:46.527Z,8.35
2019-03-18T08:09:13.117Z,6.28
2019-03-18T08:11:39.692Z,5.78
2019-03-18T08:14:06.303Z,4.30
2019-03-18T08:16:32.965Z,3.90
2019-03-18T08:18:59.579Z,3.27
2019-03-18T08:21:27.246Z,5.10
2019-03-18T08:23:53.848Z,4.90
2019-03-18T08:26:20.418Z,6.17
2019-03-18T08:28:47.015Z,5.40
2019-03-18T08:31:13.584Z,4.92
2019-03-18T08:33:40.153Z,4.92
2019-03-18T08:36:06.731Z,5.00
2019-03-18T08:38:33.310Z,4.25
2019-03-18T08:40:59.885Z,4.87
2019-03-18T08:43:26.458Z,3.62
2019-03-18T08:45:53.038Z,4.75
2019-03-18T08:48:19.610Z,3.90
2019-03-18T08:50:46.194Z,4.17
2019-03-18T08:53:12.767Z,4.80
2019-03-18T08:55:39.347Z,5.33
2019-03-18T08:58:05.918Z,4.50
2019-03-18T09:00:32.486Z,4.40
2019-03-18T09:02:59.061Z,4.58
2019-03-18T09:05:25.641Z,5.53
2019-03-18T09:07:52.216Z,5.10
2019-03-18T09:10:18.794Z,6.50
2019-03-18T09:12:45.372Z,6.78
2019-03-18T09:15:11.944Z,8.73
2019-03-18T09:17:38.526Z,6.42
2019-03-18T09:20:05.122Z,8.88
2019-03-18T09:22:31.699Z,8.25
2019-03-18T09:24:58.308Z,8.25
2019-03-18T09:27:24.881Z,4.78
2019-03-18T09:29:51.497Z,4.90
2019-03-18T09:32:18.054Z,11.95
2019-03-18T09:34:44.649Z,6.42
2019-03-18T09:37:11.222Z,3.75
2019-03-18T09:39:37.821Z,3.70
2019-03-18T09:42:04.470Z,3.52
2019-03-18T09:44:31.085Z,4.25
2019-03-18T09:46:57.648Z,4.97
2019-03-18T09:49:24.257Z,4.67
2019-03-18T09:51:50.829Z,5.28
2019-03-18T09:54:17.434Z,4.05
2019-03-18T09:56:44.005Z,4.50
2019-03-18T09:59:10.600Z,4.53
2019-03-18T10:01:37.182Z,4.55
2019-03-18T10:04:03.765Z,3.10
2019-03-18T10:06:30.342Z,3.87
2019-03-18T10:08:56.915Z,3.42
2019-03-18T10:11:23.484Z,3.35
2019-03-18T10:13:50.067Z,3.67
2019-03-18T10:16:16.646Z,3.37
2019-03-18T10:18:43.221Z,3.62
2019-03-18T10:21:09.804Z,4.33
2019-03-18T10:23:36.387Z,3.83
2019-03-18T10:26:02.961Z,4.00
2019-03-18T10:28:29.587Z,3.15
2019-03-18T10:30:56.160Z,3.20
2019-03-18T10:33:22.748Z,4.10
2019-03-18T10:35:49.325Z,4.30
2019-03-18T10:38:15.908Z,5.15
2019-03-18T10:40:42.499Z,3.92
2019-03-18T10:43:09.077Z,3.80
2019-03-18T10:45:35.694Z,3.12
2019-03-18T10:48:02.269Z,3.50
2019-03-18T10:50:28.876Z,3.62
2019-03-18T10:52:55.466Z,4.42
2019-03-18T10:55:22.055Z,3.22
2019-03-18T10:57:48.625Z,3.47
2019-03-18T11:00:15.272Z,3.40
2019-03-18T11:02:44.694Z,4.83
2019-03-18T11:05:10.233Z,4.08
2019-03-18T11:07:36.914Z,2.30
2019-03-18T11:10:03.534Z,2.92
2019-03-18T11:12:30.101Z,2.52
2019-03-18T11:14:56.796Z,3.52
2019-03-18T11:17:23.378Z,2.62
2019-03-18T11:19:58.227Z,3.30
2019-03-18T11:22:18.253Z,3.77
2019-03-18T11:24:44.844Z,4.37
2019-03-18T11:27:11.410Z,3.10
2019-03-18T11:29:37.983Z,3.30
2019-03-18T11:32:04.555Z,3.00
2019-03-18T11:34:31.137Z,4.17
2019-03-18T11:36:57.728Z,3.75
2019-03-18T11:39:24.296Z,5.55
2019-03-18T11:41:50.866Z,3.80
2019-03-18T11:44:17.459Z,5.28
2019-03-18T11:46:44.070Z,4.72
2019-03-18T11:49:10.639Z,3.45
2019-03-18T11:51:37.218Z,3.10
2019-03-18T11:54:03.787Z,3.17
2019-03-18T11:56:30.363Z,3.08
2019-03-18T11:58:56.935Z,3.22
2019-03-18T12:01:23.551Z,3.05
2019-03-18T12:03:50.132Z,3.80
2019-03-18T12:06:16.724Z,3.05
2019-03-18T12:08:43.301Z,2.95
2019-03-18T12:11:09.966Z,3.50
2019-03-18T12:13:36.547Z,31.25
2019-03-18T12:16:03.169Z,22.65
2019-03-18T12:18:29.741Z,6.28
2019-03-18T12:20:56.347Z,3.87
2019-03-18T12:23:22.938Z,4.33
2019-03-18T12:25:49.548Z,3.35
2019-03-18T12:28:16.116Z,2.90
2019-03-18T12:30:42.725Z,4.17
2019-03-18T12:33:09.300Z,2.98
2019-03-18T12:35:35.892Z,3.83
2019-03-18T12:38:02.462Z,2.80
2019-03-18T12:40:29.032Z,3.20
2019-03-18T12:42:55.611Z,2.95
2019-03-18T12:45:22.319Z,3.17
2019-03-18T12:47:48.899Z,2.90
2019-03-18T12:50:15.464Z,3.12
2019-03-18T12:52:42.052Z,4.37
2019-03-18T12:55:08.619Z,4.10
2019-03-18T12:57:35.199Z,4.10
2019-03-18T13:00:01.774Z,3.30
2019-03-18T13:02:28.341Z,4.05
2019-03-18T13:04:54.918Z,3.92
2019-03-18T13:07:21.535Z,3.40
2019-03-18T13:09:48.114Z,3.22
2019-03-18T13:12:14.718Z,2.35
2019-03-18T13:14:41.292Z,3.17
2019-03-18T13:17:07.904Z,3.30
2019-03-18T13:19:34.540Z,3.40
2019-03-18T13:22:01.154Z,4.58
2019-03-18T13:24:27.787Z,4.62
2019-03-18T13:26:54.417Z,4.33
2019-03-18T13:29:21.002Z,5.65
2019-03-18T13:31:47.611Z,5.17
2019-03-18T13:34:14.186Z,4.33
2019-03-18T13:36:40.777Z,4.97
2019-03-18T13:39:07.362Z,4.58
2019-03-18T13:41:33.953Z,4.42
2019-03-18T13:44:00.530Z,4.50
2019-03-18T13:46:27.166Z,5.40
2019-03-18T13:48:53.724Z,6.28
2019-03-18T13:51:21.378Z,5.20
2019-03-18T13:53:48.117Z,5.00
2019-03-18T13:56:14.695Z,5.10
2019-03-18T13:58:41.354Z,4.87
2019-03-18T14:01:07.972Z,3.95
2019-03-18T14:03:34.540Z,4.28
2019-03-18T14:06:01.117Z,3.92
2019-03-18T14:08:27.683Z,3.90
2019-03-18T14:10:54.252Z,4.00
2019-03-18T14:13:20.842Z,4.97
2019-03-18T14:15:47.401Z,6.55
2019-03-18T14:18:13.991Z,7.33
2019-03-18T14:20:40.564Z,6.30
2019-03-18T14:23:07.211Z,6.22
2019-03-18T14:25:33.795Z,7.17
2019-03-18T14:28:00.401Z,7.47
2019-03-18T14:30:27.023Z,7.47
2019-03-18T14:32:53.603Z,6.85
2019-03-18T14:35:21.545Z,6.78
2019-03-18T14:37:48.642Z,7.30
2019-03-18T14:40:15.216Z,7.47
2019-03-18T14:42:41.809Z,7.25
2019-03-18T14:45:08.379Z,9.23
2019-03-18T14:47:35.020Z,8.95
2019-03-18T14:50:01.648Z,7.42
2019-03-18T14:52:28.313Z,6.05
2019-03-18T14:54:54.874Z,5.47
2019-03-18T14:57:21.495Z,6.80
2019-03-18T14:59:48.098Z,6.45
2019-03-18T15:02:14.759Z,6.20
2019-03-18T15:04:41.342Z,6.53
2019-03-18T15:07:07.968Z,5.97
2019-03-18T15:09:34.559Z,7.60
2019-03-18T15:12:01.162Z,6.62
2019-03-18T15:14:27.731Z,7.05
2019-03-18T15:16:54.347Z,7.60
2019-03-18T15:19:20.931Z,6.83
2019-03-18T15:21:57.997Z,7.10
2019-03-18T15:24:17.139Z,6.22
2019-03-18T15:26:44.123Z,6.83
2019-03-18T15:29:10.693Z,6.45
2019-03-18T15:31:37.297Z,6.05
2019-03-18T15:34:03.872Z,5.92
2019-03-18T15:36:30.461Z,6.58
2019-03-18T15:38:57.029Z,6.20
2019-03-18T15:41:23.605Z,7.03
2019-03-18T15:43:50.176Z,7.47
2019-03-18T15:46:16.750Z,6.72
2019-03-18T15:48:43.333Z,8.23
2019-03-18T15:51:09.926Z,6.47
2019-03-18T15:53:36.498Z,6.65
2019-03-18T15:56:03.074Z,6.33
2019-03-18T15:58:29.654Z,6.22
2019-03-18T16:00:56.229Z,6.33
2019-03-18T16:03:22.883Z,7.05
2019-03-18T16:05:49.470Z,6.45
2019-03-18T16:08:16.346Z,9.15
2019-03-18T16:10:42.949Z,7.28
2019-03-18T16:13:09.590Z,8.48
2019-03-18T16:15:36.174Z,8.18
2019-03-18T16:18:02.753Z,9.45
2019-03-18T16:20:29.434Z,9.95
2019-03-18T16:22:56.009Z,9.63
2019-03-18T16:25:22.581Z,11.08
2019-03-18T16:27:49.156Z,12.07
2019-03-18T16:30:15.740Z,12.60
2019-03-18T16:32:42.361Z,16.55
2019-03-18T16:35:08.932Z,14.13
2019-03-18T16:37:35.544Z,13.32
2019-03-18T16:40:02.118Z,16.27
2019-03-18T16:42:28.840Z,15.83
2019-03-18T16:44:55.413Z,14.65
2019-03-18T16:47:22.032Z,12.53
2019-03-18T16:49:48.624Z,12.75
2019-03-18T16:52:15.229Z,12.88
2019-03-18T16:54:41.814Z,11.25
2019-03-18T16:57:08.391Z,11.35
2019-03-18T16:59:34.971Z,11.03
2019-03-18T17:02:01.601Z,10.05
2019-03-18T17:04:28.211Z,11.15
2019-03-18T17:06:54.788Z,9.93
2019-03-18T17:09:21.366Z,10.90
2019-03-18T17:11:47.945Z,11.57
2019-03-18T17:14:14.526Z,11.35
2019-03-18T17:16:41.105Z,10.80
2019-03-18T17:19:07.693Z,11.60
2019-03-18T17:21:34.371Z,11.03
2019-03-18T17:24:00.943Z,14.00
2019-03-18T17:26:28.783Z,14.58
2019-03-18T17:28:55.357Z,13.93
2019-03-18T17:31:21.961Z,13.18
2019-03-18T17:33:48.538Z,13.35
2019-03-18T17:36:15.120Z,12.37
2019-03-18T17:38:41.712Z,14.07
2019-03-18T17:41:09.393Z,12.98
2019-03-18T17:43:36.147Z,23.35
2019-03-18T17:46:02.805Z,31.25
2019-03-18T17:48:29.380Z,21.87
2019-03-18T17:50:55.969Z,18.82
2019-03-18T17:53:22.536Z,17.87
2019-03-18T17:55:49.120Z,18.00
2019-03-18T17:58:15.696Z,18.87
2019-03-18T18:00:42.277Z,20.55
2019-03-18T18:03:08.855Z,14.50
2019-03-18T18:05:35.431Z,11.90
2019-03-18T18:08:02.005Z,11.15
2019-03-18T18:10:28.580Z,11.03
2019-03-18T18:12:55.172Z,10.35
2019-03-18T18:15:21.750Z,10.30
2019-03-18T18:17:48.320Z,10.25
2019-03-18T18:20:14.947Z,8.45
2019-03-18T18:22:41.526Z,9.53
2019-03-18T18:25:08.115Z,9.15
2019-03-18T18:27:34.703Z,9.10
2019-03-18T18:30:01.328Z,8.55
2019-03-18T18:32:27.896Z,9.93
2019-03-18T18:34:55.910Z,7.83
2019-03-18T18:37:22.490Z,8.60
2019-03-18T18:39:49.101Z,8.83
2019-03-18T18:42:15.712Z,10.20
2019-03-18T18:44:42.323Z,12.10
2019-03-18T18:47:08.893Z,10.98
2019-03-18T18:49:35.535Z,9.03
2019-03-18T18:52:02.114Z,10.25
2019-03-18T18:54:28.708Z,11.10
2019-03-18T18:56:55.288Z,10.35
2019-03-18T18:59:21.875Z,10.85
2019-03-18T19:01:48.464Z,11.28
2019-03-18T19:04:15.079Z,11.25
2019-03-18T19:06:41.655Z,10.85
2019-03-18T19:09:08.334Z,10.60
2019-03-18T19:11:34.974Z,10.40
2019-03-18T19:14:01.575Z,14.43
2019-03-18T19:16:28.147Z,13.43
2019-03-18T19:18:54.760Z,14.65
2019-03-18T19:21:21.376Z,14.05
2019-03-18T19:23:47.971Z,16.87
2019-03-18T19:26:14.545Z,17.12
2019-03-18T19:28:41.223Z,14.33
2019-03-18T19:31:07.798Z,16.45
2019-03-18T19:33:34.447Z,18.15
2019-03-18T19:36:01.025Z,16.27
2019-03-18T19:38:27.642Z,23.20
2019-03-18T19:40:54.215Z,21.15
2019-03-18T19:43:20.788Z,29.75
2019-03-18T19:45:47.479Z,26.48
2019-03-18T19:48:14.062Z,25.82
2019-03-18T19:50:40.640Z,31.05
2019-03-18T19:53:07.244Z,33.10
2019-03-18T19:55:33.809Z,35.10
2019-03-18T19:58:00.457Z,34.00
2019-03-18T20:00:27.084Z,33.98
2019-03-18T20:02:53.678Z,29.75
2019-03-18T20:05:20.273Z,26.33
2019-03-18T20:07:46.850Z,29.52
2019-03-18T20:10:13.476Z,24.85
2019-03-18T20:12:40.099Z,19.42
2019-03-18T20:15:06.714Z,22.02
2019-03-18T20:17:33.333Z,19.85
2019-03-18T20:20:00.190Z,19.35
2019-03-18T20:22:27.050Z,18.75
2019-03-18T20:24:53.637Z,20.30
2019-03-18T20:27:20.897Z,20.60
2019-03-18T20:29:47.530Z,22.17
2019-03-18T20:32:14.105Z,21.77
2019-03-18T20:34:40.743Z,20.08
2019-03-18T20:37:07.322Z,21.50
2019-03-18T20:39:33.961Z,25.12
2019-03-18T20:42:00.533Z,25.17
2019-03-18T20:44:27.131Z,25.97
2019-03-18T20:46:53.707Z,25.55
2019-03-18T20:49:20.327Z,23.40
2019-03-18T20:51:47.279Z,28.80
2019-03-18T20:54:13.850Z,29.90
2019-03-18T20:56:40.433Z,27.25
2019-03-18T20:59:07.006Z,24.55
2019-03-18T21:01:33.582Z,21.70
2019-03-18T21:04:00.160Z,25.40
2019-03-18T21:06:26.745Z,25.60
2019-03-18T21:08:53.332Z,23.10
2019-03-18T21:11:19.909Z,19.02
2019-03-18T21:13:56.760Z,20.97
2019-03-18T21:16:14.782Z,22.32
2019-03-18T21:18:43.903Z,20.90
2019-03-18T21:21:09.655Z,19.37
2019-03-18T21:23:36.271Z,18.23
2019-03-18T21:26:02.855Z,20.60
2019-03-18T21:28:40.498Z,20.00
2019-03-18T21:30:57.736Z,18.80
2019-03-18T21:33:24.314Z,19.55
2019-03-18T21:35:53.079Z,19.40
2019-03-18T21:38:19.463Z,17.07
2019-03-18T21:40:46.032Z,19.70
2019-03-18T21:43:12.606Z,19.17
2019-03-18T21:45:39.180Z,16.60
2019-03-18T21:48:05.756Z,18.12
2019-03-18T21:50:32.337Z,17.37
2019-03-18T21:52:58.914Z,17.62
2019-03-18T21:55:25.492Z,21.90
2019-03-18T21:57:52.060Z,23.10
2019-03-18T22:00:18.633Z,20.30
2019-03-18T22:02:45.214Z,26.87
2019-03-18T22:05:11.829Z,28.30
2019-03-18T22:07:38.393Z,22.67
2019-03-18T22:10:05.008Z,25.25
2019-03-18T22:12:31.680Z,22.90
2019-03-18T22:14:58.273Z,22.40
2019-03-18T22:17:24.890Z,25.02
2019-03-18T22:19:51.501Z,21.93
2019-03-18T22:22:18.079Z,22.17
2019-03-18T22:24:45.711Z,24.37
2019-03-18T22:27:12.507Z,21.55
2019-03-18T22:29:39.085Z,20.97
2019-03-18T22:32:05.664Z,22.93
2019-03-18T22:34:32.238Z,19.95
2019-03-18T22:36:58.875Z,21.10
2019-03-18T22:39:25.459Z,22.15
2019-03-18T22:41:52.039Z,21.10
2019-03-18T22:44:18.618Z,18.20
2019-03-18T22:46:45.214Z,19.98
2019-03-18T22:49:11.836Z,19.70
2019-03-18T22:51:38.409Z,17.40
2019-03-18T22:54:04.989Z,23.20
2019-03-18T22:56:31.576Z,23.25
2019-03-18T22:58:58.151Z,26.00
2019-03-18T23:01:24.851Z,21.50
2019-03-18T23:03:51.416Z,23.18
2019-03-18T23:06:18.031Z,22.37
2019-03-18T23:08:44.595Z,21.68
2019-03-18T23:11:11.189Z,18.85
2019-03-18T23:13:37.769Z,20.55
2019-03-18T23:16:04.362Z,18.98
2019-03-18T23:18:31.003Z,18.83
2019-03-18T23:20:57.611Z,18.87
2019-03-18T23:23:24.182Z,18.55
2019-03-18T23:25:50.857Z,18.23
2019-03-18T23:28:17.435Z,18.85
2019-03-18T23:30:44.026Z,17.12
2019-03-18T23:33:10.610Z,17.65
2019-03-18T23:35:37.216Z,16.30
2019-03-18T23:38:03.783Z,17.77
2019-03-18T23:40:30.377Z,16.07
2019-03-18T23:42:56.953Z,16.37
2019-03-18T23:45:23.550Z,17.12
2019-03-18T23:47:50.119Z,16.57
2019-03-18T23:50:16.742Z,17.87
2019-03-18T23:52:43.326Z,16.27
2019-03-18T23:55:18.174Z,14.83
2019-03-18T23:57:38.215Z,14.70
